sensor_id;sensor_type;location;lat;lon;timestamp;pressure;altitude;pressure_sealevel;temperature;humidity
11856;BME280;5987;53.140;8.904;2024-03-22T00:01:38;102486.41;;;8.05;100.00
11856;BME280;5987;53.140;8.904;2024-03-22T00:04:39;102492.53;;;8.10;100.00
11856;BME280;5987;53.140;8.904;2024-03-22T00:07:42;102473.31;;;8.11;100.00
11856;BME280;5987;53.140;8.904;2024-03-22T00:10:43;102471.59;;;8.13;100.00
11856;BME280;5987;53.140;8.904;2024-03-22T00:13:45;102473.34;;;8.16;100.00
11856;BME280;5987;53.140;8.904;2024-03-22T00:16:47;102480.34;;;8.20;100.00
11856;BME280;5987;53.140;8.904;2024-03-22T00:19:49;102478.59;;;8.17;100.00
11856;BME280;5987;53.140;8.904;2024-03-22T00:22:51;102480.34;;;8.20;100.00
11856;BME280;5987;53.140;8.904;2024-03-22T00:25:53;102478.56;;;8.20;100.00
11856;BME280;5987;53.140;8.904;2024-03-22T00:28:54;102478.56;;;8.19;100.00
11856;BME280;5987;53.140;8.904;2024-03-22T00:31:58;102475.97;;;8.16;100.00
11856;BME280;5987;53.140;8.904;2024-03-22T00:35:01;102481.19;;;8.23;100.00
11856;BME280;5987;53.140;8.904;2024-03-22T00:38:03;102478.56;;;8.22;100.00
11856;BME280;5987;53.140;8.904;2024-03-22T00:41:05;102477.69;;;8.26;100.00
11856;BME280;5987;53.140;8.904;2024-03-22T00:44:07;102466.38;;;8.29;100.00
11856;BME280;5987;53.140;8.904;2024-03-22T00:47:09;102461.13;;;8.26;100.00
11856;BME280;5987;53.140;8.904;2024-03-22T00:50:12;102451.53;;;8.26;100.00
11856;BME280;5987;53.140;8.904;2024-03-22T00:53:14;102449.78;;;8.25;100.00
11856;BME280;5987;53.140;8.904;2024-03-22T00:56:16;102452.38;;;8.30;100.00
11856;BME280;5987;53.140;8.904;2024-03-22T00:59:18;102452.41;;;8.34;100.00
11856;BME280;5987;53.140;8.904;2024-03-22T01:02:20;102447.16;;;8.37;100.00
11856;BME280;5987;53.140;8.904;2024-03-22T01:05:23;102435.81;;;8.37;100.00
11856;BME280;5987;53.140;8.904;2024-03-22T01:08:24;102427.06;;;8.39;100.00
11856;BME280;5987;53.140;8.904;2024-03-22T01:11:27;102424.44;;;8.39;100.00
11856;BME280;5987;53.140;8.904;2024-03-22T01:14:28;102395.66;;;8.36;100.00
11856;BME280;5987;53.140;8.904;2024-03-22T01:17:30;102396.53;;;8.43;100.00
11856;BME280;5987;53.140;8.904;2024-03-22T01:20:32;102377.34;;;8.39;100.00
11856;BME280;5987;53.140;8.904;2024-03-22T01:23:34;102373.00;;;8.48;100.00
11856;BME280;5987;53.140;8.904;2024-03-22T01:26:35;102354.69;;;8.46;100.00
11856;BME280;5987;53.140;8.904;2024-03-22T01:29:38;102340.72;;;8.46;100.00
11856;BME280;5987;53.140;8.904;2024-03-22T01:32:39;102336.34;;;8.45;100.00
11856;BME280;5987;53.140;8.904;2024-03-22T01:35:41;102334.59;;;8.45;100.00
11856;BME280;5987;53.140;8.904;2024-03-22T01:38:43;102325.88;;;8.48;100.00
11856;BME280;5987;53.140;8.904;2024-03-22T01:41:45;102309.28;;;8.50;100.00
11856;BME280;5987;53.140;8.904;2024-03-22T01:44:49;102300.56;;;8.51;100.00
11856;BME280;5987;53.140;8.904;2024-03-22T01:47:52;102296.16;;;8.55;100.00
11856;BME280;5987;53.140;8.904;2024-03-22T01:50:56;102292.69;;;8.53;100.00
11856;BME280;5987;53.140;8.904;2024-03-22T01:54:01;102290.13;;;8.48;100.00
11856;BME280;5987;53.140;8.904;2024-03-22T01:57:04;102296.19;;;8.52;100.00
11856;BME280;5987;53.140;8.904;2024-03-22T02:00:07;102295.31;;;8.56;100.00
11856;BME280;5987;53.140;8.904;2024-03-22T02:03:09;102287.44;;;8.56;100.00
11856;BME280;5987;53.140;8.904;2024-03-22T02:06:11;102285.72;;;8.53;100.00
11856;BME280;5987;53.140;8.904;2024-03-22T02:09:14;102281.34;;;8.55;100.00
11856;BME280;5987;53.140;8.904;2024-03-22T02:12:17;102278.69;;;8.60;100.00
11856;BME280;5987;53.140;8.904;2024-03-22T02:15:18;102270.00;;;8.58;100.00
11856;BME280;5987;53.140;8.904;2024-03-22T02:18:20;102268.22;;;8.60;100.00
11856;BME280;5987;53.140;8.904;2024-03-22T02:21:22;102260.38;;;8.60;100.00
11856;BME280;5987;53.140;8.904;2024-03-22T02:24:24;102256.91;;;8.56;100.00
11856;BME280;5987;53.140;8.904;2024-03-22T02:27:26;102250.78;;;8.56;100.00
11856;BME280;5987;53.140;8.904;2024-03-22T02:30:28;102248.16;;;8.57;100.00
11856;BME280;5987;53.140;8.904;2024-03-22T02:33:30;102250.78;;;8.56;100.00
11856;BME280;5987;53.140;8.904;2024-03-22T02:36:33;102246.44;;;8.55;100.00
11856;BME280;5987;53.140;8.904;2024-03-22T02:39:34;102243.81;;;8.56;100.00
11856;BME280;5987;53.140;8.904;2024-03-22T02:42:36;102256.03;;;8.56;100.00
11856;BME280;5987;53.140;8.904;2024-03-22T02:45:39;102259.53;;;8.58;100.00
11856;BME280;5987;53.140;8.904;2024-03-22T02:48:40;102263.84;;;8.61;100.00
11856;BME280;5987;53.140;8.904;2024-03-22T02:51:43;102265.59;;;8.62;100.00
11856;BME280;5987;53.140;8.904;2024-03-22T02:54:44;102269.09;;;8.64;100.00
11856;BME280;5987;53.140;8.904;2024-03-22T02:57:49;102264.72;;;8.64;100.00
11856;BME280;5987;53.140;8.904;2024-03-22T03:00:51;102269.94;;;8.67;100.00
11856;BME280;5987;53.140;8.904;2024-03-22T03:03:53;102260.34;;;8.68;100.00
11856;BME280;5987;53.140;8.904;2024-03-22T03:06:54;102278.66;;;8.66;100.00
11856;BME280;5987;53.140;8.904;2024-03-22T03:09:57;102288.31;;;8.61;100.00
11856;BME280;5987;53.140;8.904;2024-03-22T03:12:58;102310.97;;;8.59;100.00
11856;BME280;5987;53.140;8.904;2024-03-22T03:16:02;102332.81;;;8.61;100.00
11856;BME280;5987;53.140;8.904;2024-03-22T03:19:05;102350.25;;;8.59;100.00
11856;BME280;5987;53.140;8.904;2024-03-22T03:22:06;102368.56;;;8.65;100.00
11856;BME280;5987;53.140;8.904;2024-03-22T03:25:08;102365.94;;;8.68;100.00
11856;BME280;5987;53.140;8.904;2024-03-22T03:28:10;102369.44;;;8.64;100.00
11856;BME280;5987;53.140;8.904;2024-03-22T03:31:13;102359.81;;;8.66;100.00
11856;BME280;5987;53.140;8.904;2024-03-22T03:34:15;102375.53;;;8.66;100.00
11856;BME280;5987;53.140;8.904;2024-03-22T03:37:17;102384.28;;;8.68;100.00
11856;BME280;5987;53.140;8.904;2024-03-22T03:40:19;102396.47;;;8.72;100.00
11856;BME280;5987;53.140;8.904;2024-03-22T03:43:22;102397.34;;;8.71;100.00
11856;BME280;5987;53.140;8.904;2024-03-22T03:46:24;102387.72;;;8.72;100.00
11856;BME280;5987;53.140;8.904;2024-03-22T03:49:26;102393.84;;;8.72;100.00
11856;BME280;5987;53.140;8.904;2024-03-22T03:52:28;102392.09;;;8.78;100.00
11856;BME280;5987;53.140;8.904;2024-03-22T03:55:31;102392.09;;;8.78;100.00
11856;BME280;5987;53.140;8.904;2024-03-22T03:58:32;102385.09;;;8.80;100.00
11856;BME280;5987;53.140;8.904;2024-03-22T04:01:35;102381.59;;;8.81;100.00
11856;BME280;5987;53.140;8.904;2024-03-22T04:04:36;102382.47;;;8.81;100.00
11856;BME280;5987;53.140;8.904;2024-03-22T04:07:38;102389.44;;;8.85;100.00
11856;BME280;5987;53.140;8.904;2024-03-22T04:10:40;102392.03;;;8.87;100.00
11856;BME280;5987;53.140;8.904;2024-03-22T04:13:42;102394.66;;;8.88;100.00
11856;BME280;5987;53.140;8.904;2024-03-22T04:16:44;102390.31;;;8.89;100.00
11856;BME280;5987;53.140;8.904;2024-03-22T04:19:49;102401.66;;;8.89;100.00
11856;BME280;5987;53.140;8.904;2024-03-22T04:22:50;102398.13;;;8.93;100.00
11856;BME280;5987;53.140;8.904;2024-03-22T04:25:58;102393.75;;;8.94;100.00
11856;BME280;5987;53.140;8.904;2024-03-22T04:29:00;102405.09;;;8.98;100.00
11856;BME280;5987;53.140;8.904;2024-03-22T04:32:03;102400.72;;;8.98;100.00
11856;BME280;5987;53.140;8.904;2024-03-22T04:35:06;102402.47;;;8.99;100.00
11856;BME280;5987;53.140;8.904;2024-03-22T04:38:07;102398.97;;;9.00;100.00
11856;BME280;5987;53.140;8.904;2024-03-22T04:41:13;102393.72;;;9.03;100.00
11856;BME280;5987;53.140;8.904;2024-03-22T04:44:16;102395.47;;;9.01;100.00
11856;BME280;5987;53.140;8.904;2024-03-22T04:47:18;102394.56;;;9.04;100.00
11856;BME280;5987;53.140;8.904;2024-03-22T04:50:20;102398.94;;;9.06;100.00
11856;BME280;5987;53.140;8.904;2024-03-22T04:53:22;102404.19;;;9.06;100.00
11856;BME280;5987;53.140;8.904;2024-03-22T04:56:24;102406.78;;;9.08;100.00
11856;BME280;5987;53.140;8.904;2024-03-22T04:59:27;102416.38;;;9.10;100.00
11856;BME280;5987;53.140;8.904;2024-03-22T05:02:28;102418.13;;;9.12;100.00
11856;BME280;5987;53.140;8.904;2024-03-22T05:05:31;102412.91;;;9.12;100.00
11856;BME280;5987;53.140;8.904;2024-03-22T05:08:33;102405.84;;;9.17;100.00
11856;BME280;5987;53.140;8.904;2024-03-22T05:11:35;102410.22;;;9.18;100.00
11856;BME280;5987;53.140;8.904;2024-03-22T05:14:36;102401.50;;;9.17;100.00
11856;BME280;5987;53.140;8.904;2024-03-22T05:17:39;102407.63;;;9.18;100.00
11856;BME280;5987;53.140;8.904;2024-03-22T05:20:42;102409.38;;;9.19;100.00
11856;BME280;5987;53.140;8.904;2024-03-22T05:23:44;102411.97;;;9.19;100.00
11856;BME280;5987;53.140;8.904;2024-03-22T05:26:46;102416.34;;;9.20;100.00
11856;BME280;5987;53.140;8.904;2024-03-22T05:29:48;102422.44;;;9.20;100.00
11856;BME280;5987;53.140;8.904;2024-03-22T05:32:49;102415.44;;;9.21;100.00
11856;BME280;5987;53.140;8.904;2024-03-22T05:35:52;102428.56;;;9.25;100.00
11856;BME280;5987;53.140;8.904;2024-03-22T05:38:53;102418.94;;;9.24;100.00
11856;BME280;5987;53.140;8.904;2024-03-22T05:41:56;102428.53;;;9.29;100.00
11856;BME280;5987;53.140;8.904;2024-03-22T05:44:58;102422.41;;;9.31;100.00
11856;BME280;5987;53.140;8.904;2024-03-22T05:48:00;102431.97;;;9.32;100.00
11856;BME280;5987;53.140;8.904;2024-03-22T05:51:01;102429.38;;;9.35;100.00
11856;BME280;5987;53.140;8.904;2024-03-22T05:54:04;102425.84;;;9.38;100.00
11856;BME280;5987;53.140;8.904;2024-03-22T05:57:07;102417.94;;;9.39;100.00
11856;BME280;5987;53.140;8.904;2024-03-22T06:00:10;102421.47;;;9.40;100.00
11856;BME280;5987;53.140;8.904;2024-03-22T06:03:12;102412.69;;;9.46;100.00
11856;BME280;5987;53.140;8.904;2024-03-22T06:06:14;102409.19;;;9.47;100.00
11856;BME280;5987;53.140;8.904;2024-03-22T06:09:17;102404.78;;;9.49;100.00
11856;BME280;5987;53.140;8.904;2024-03-22T06:12:24;102405.66;;;9.54;100.00
11856;BME280;5987;53.140;8.904;2024-03-22T06:15:28;102401.28;;;9.53;100.00
11856;BME280;5987;53.140;8.904;2024-03-22T06:18:29;102383.75;;;9.59;100.00
11856;BME280;5987;53.140;8.904;2024-03-22T06:21:32;102388.97;;;9.61;100.00
11856;BME280;5987;53.140;8.904;2024-03-22T06:24:33;102384.59;;;9.66;100.00
11856;BME280;5987;53.140;8.904;2024-03-22T06:27:36;102371.44;;;9.69;100.00
11856;BME280;5987;53.140;8.904;2024-03-22T06:30:38;102356.56;;;9.68;100.00
11856;BME280;5987;53.140;8.904;2024-03-22T06:33:41;102356.56;;;9.68;100.00
11856;BME280;5987;53.140;8.904;2024-03-22T06:36:42;102367.09;;;9.67;100.00
11856;BME280;5987;53.140;8.904;2024-03-22T06:39:44;102380.19;;;9.67;100.00
11856;BME280;5987;53.140;8.904;2024-03-22T06:42:47;102385.44;;;9.67;100.00
11856;BME280;5987;53.140;8.904;2024-03-22T06:45:49;102404.63;;;9.70;100.00
11856;BME280;5987;53.140;8.904;2024-03-22T06:48:51;102423.00;;;9.67;100.00
11856;BME280;5987;53.140;8.904;2024-03-22T06:51:54;102460.63;;;9.65;100.00
11856;BME280;5987;53.140;8.904;2024-03-22T06:54:55;102479.81;;;9.71;100.00
11856;BME280;5987;53.140;8.904;2024-03-22T06:57:57;102473.66;;;9.75;100.00
11856;BME280;5987;53.140;8.904;2024-03-22T07:00:58;102485.97;;;9.66;100.00
11856;BME280;5987;53.140;8.904;2024-03-22T07:04:01;102506.09;;;9.65;100.00
11856;BME280;5987;53.140;8.904;2024-03-22T07:07:03;102519.16;;;9.71;100.00
11856;BME280;5987;53.140;8.904;2024-03-22T07:10:06;102520.91;;;9.72;100.00
11856;BME280;5987;53.140;8.904;2024-03-22T07:13:07;102523.56;;;9.69;100.00
11856;BME280;5987;53.140;8.904;2024-03-22T07:16:09;102524.41;;;9.71;100.00
11856;BME280;5987;53.140;8.904;2024-03-22T07:19:12;102518.31;;;9.71;100.00
11856;BME280;5987;53.140;8.904;2024-03-22T07:22:14;102520.94;;;9.69;100.00
11856;BME280;5987;53.140;8.904;2024-03-22T07:25:15;102540.13;;;9.74;100.00
11856;BME280;5987;53.140;8.904;2024-03-22T07:28:18;102563.75;;;9.70;100.00
11856;BME280;5987;53.140;8.904;2024-03-22T07:31:20;102585.69;;;9.55;100.00
11856;BME280;5987;53.140;8.904;2024-03-22T07:34:22;102647.78;;;9.50;100.00
11856;BME280;5987;53.140;8.904;2024-03-22T07:37:24;102699.34;;;9.52;100.00
11856;BME280;5987;53.140;8.904;2024-03-22T07:40:26;102759.66;;;9.51;100.00
11856;BME280;5987;53.140;8.904;2024-03-22T07:43:28;102811.22;;;9.52;100.00
11856;BME280;5987;53.140;8.904;2024-03-22T07:46:30;102861.94;;;9.52;100.00
11856;BME280;5987;53.140;8.904;2024-03-22T07:49:32;102917.84;;;9.57;100.00
11856;BME280;5987;53.140;8.904;2024-03-22T07:52:35;102948.47;;;9.54;100.00
11856;BME280;5987;53.140;8.904;2024-03-22T07:55:37;102992.16;;;9.49;100.00
11856;BME280;5987;53.140;8.904;2024-03-22T07:58:39;103029.72;;;9.48;100.00
11856;BME280;5987;53.140;8.904;2024-03-22T08:01:42;103065.59;;;9.53;100.00
11856;BME280;5987;53.140;8.904;2024-03-22T08:04:43;103087.41;;;9.48;100.00
11856;BME280;5987;53.140;8.904;2024-03-22T08:07:45;103111.88;;;9.42;100.00
11856;BME280;5987;53.140;8.904;2024-03-22T08:10:47;103140.75;;;9.48;100.00
11856;BME280;5987;53.140;8.904;2024-03-22T08:13:49;103163.47;;;9.48;100.00
11856;BME280;5987;53.140;8.904;2024-03-22T08:16:51;103202.81;;;9.48;100.00
11856;BME280;5987;53.140;8.904;2024-03-22T08:19:54;103228.16;;;9.49;100.00
11856;BME280;5987;53.140;8.904;2024-03-22T08:22:55;103253.47;;;9.43;100.00
11856;BME280;5987;53.140;8.904;2024-03-22T08:25:58;103274.44;;;9.43;100.00
11856;BME280;5987;53.140;8.904;2024-03-22T08:28:59;103291.06;;;9.42;100.00
11856;BME280;5987;53.140;8.904;2024-03-22T08:32:04;103311.16;;;9.43;100.00
11856;BME280;5987;53.140;8.904;2024-03-22T08:35:07;103336.59;;;9.52;100.00
11856;BME280;5987;53.140;8.904;2024-03-22T08:38:08;103354.06;;;9.52;100.00
11856;BME280;5987;53.140;8.904;2024-03-22T08:41:11;103366.31;;;9.53;100.00
11856;BME280;5987;53.140;8.904;2024-03-22T08:44:13;103357.59;;;9.55;100.00
11856;BME280;5987;53.140;8.904;2024-03-22T08:47:15;103346.22;;;9.55;100.00
11856;BME280;5987;53.140;8.904;2024-03-22T08:50:16;103345.44;;;9.62;100.00
11856;BME280;5987;53.140;8.904;2024-03-22T08:53:19;103334.94;;;9.62;100.00
11856;BME280;5987;53.140;8.904;2024-03-22T08:56:21;103313.94;;;9.62;100.00
11856;BME280;5987;53.140;8.904;2024-03-22T08:59:23;103302.56;;;9.60;100.00
11856;BME280;5987;53.140;8.904;2024-03-22T09:02:25;103300.84;;;9.62;100.00
11856;BME280;5987;53.140;8.904;2024-03-22T09:05:28;103286.00;;;9.69;100.00
11856;BME280;5987;53.140;8.904;2024-03-22T09:08:30;103268.53;;;9.68;100.00
11856;BME280;5987;53.140;8.904;2024-03-22T09:11:32;103236.19;;;9.73;100.00
11856;BME280;5987;53.140;8.904;2024-03-22T09:14:34;103202.09;;;9.76;100.00
11856;BME280;5987;53.140;8.904;2024-03-22T09:17:35;103170.59;;;9.72;100.00
11856;BME280;5987;53.140;8.904;2024-03-22T09:20:38;103126.88;;;9.77;100.00
11856;BME280;5987;53.140;8.904;2024-03-22T09:23:39;103087.53;;;9.72;100.00
11856;BME280;5987;53.140;8.904;2024-03-22T09:26:41;103054.28;;;9.70;100.00
11856;BME280;5987;53.140;8.904;2024-03-22T09:29:42;103028.03;;;9.68;100.00
11856;BME280;5987;53.140;8.904;2024-03-22T09:32:45;103005.31;;;9.70;100.00
11856;BME280;5987;53.140;8.904;2024-03-22T09:35:46;102982.56;;;9.63;100.00
11856;BME280;5987;53.140;8.904;2024-03-22T09:38:48;102949.34;;;9.62;100.00
11856;BME280;5987;53.140;8.904;2024-03-22T09:41:51;102931.84;;;9.66;100.00
11856;BME280;5987;53.140;8.904;2024-03-22T09:44:53;102909.97;;;9.60;100.00
11856;BME280;5987;53.140;8.904;2024-03-22T09:47:56;102891.63;;;9.56;100.00
11856;BME280;5987;53.140;8.904;2024-03-22T09:51:00;102882.91;;;9.57;100.00
11856;BME280;5987;53.140;8.904;2024-03-22T09:54:02;102865.41;;;9.59;100.00
11856;BME280;5987;53.140;8.904;2024-03-22T09:57:05;102865.41;;;9.56;100.00
11856;BME280;5987;53.140;8.904;2024-03-22T10:00:10;102871.53;;;9.53;100.00
11856;BME280;5987;53.140;8.904;2024-03-22T10:03:14;102883.75;;;9.42;100.00
11856;BME280;5987;53.140;8.904;2024-03-22T10:06:18;102909.09;;;9.41;100.00
11856;BME280;5987;53.140;8.904;2024-03-22T10:09:32;102941.44;;;9.43;100.00
11856;BME280;5987;53.140;8.904;2024-03-22T10:12:34;102980.78;;;9.47;100.00
11856;BME280;5987;53.140;8.904;2024-03-22T10:15:37;102986.91;;;9.53;100.00
11856;BME280;5987;53.140;8.904;2024-03-22T10:18:38;103011.41;;;9.60;100.00
11856;BME280;5987;53.140;8.904;2024-03-22T10:21:40;103018.41;;;9.70;100.00
11856;BME280;5987;53.140;8.904;2024-03-22T10:24:42;103019.31;;;9.75;100.00
11856;BME280;5987;53.140;8.904;2024-03-22T10:27:44;103002.72;;;9.78;100.00
11856;BME280;5987;53.140;8.904;2024-03-22T10:30:49;102978.22;;;9.71;100.00
11856;BME280;5987;53.140;8.904;2024-03-22T10:34:18;102966.84;;;9.82;100.00
11856;BME280;5987;53.140;8.904;2024-03-22T10:37:22;102945.00;;;10.03;100.00
11856;BME280;5987;53.140;8.904;2024-03-22T10:40:27;102901.25;;;10.05;100.00
11856;BME280;5987;53.140;8.904;2024-03-22T10:43:29;102868.88;;;10.04;100.00
11856;BME280;5987;53.140;8.904;2024-03-22T10:46:32;102833.88;;;10.05;100.00
11856;BME280;5987;53.140;8.904;2024-03-22T10:49:37;102812.91;;;9.99;100.00
11856;BME280;5987;53.140;8.904;2024-03-22T10:52:47;102805.94;;;9.89;100.00
11856;BME280;5987;53.140;8.904;2024-03-22T10:55:52;102819.94;;;9.75;100.00
11856;BME280;5987;53.140;8.904;2024-03-22T10:59:03;102837.41;;;9.70;100.00
11856;BME280;5987;53.140;8.904;2024-03-22T11:02:05;102868.03;;;9.79;100.00
11856;BME280;5987;53.140;8.904;2024-03-22T11:05:17;102887.25;;;9.81;100.00
11856;BME280;5987;53.140;8.904;2024-03-22T11:08:29;102888.16;;;9.66;100.00
11856;BME280;5987;53.140;8.904;2024-03-22T11:11:32;102923.13;;;9.65;100.00
11856;BME280;5987;53.140;8.904;2024-03-22T11:14:38;102956.34;;;9.82;100.00
11856;BME280;5987;53.140;8.904;2024-03-22T11:17:39;102988.72;;;9.88;100.00
11856;BME280;5987;53.140;8.904;2024-03-22T11:20:43;103007.09;;;9.84;100.00
11856;BME280;5987;53.140;8.904;2024-03-22T11:23:46;103021.09;;;9.92;100.00
11856;BME280;5987;53.140;8.904;2024-03-22T11:26:49;103028.94;;;9.79;100.00
11856;BME280;5987;53.140;8.904;2024-03-22T11:29:50;103028.94;;;9.72;100.00
11856;BME280;5987;53.140;8.904;2024-03-22T11:32:55;103044.69;;;9.76;100.00
11856;BME280;5987;53.140;8.904;2024-03-22T11:36:02;103030.66;;;9.73;100.00
11856;BME280;5987;53.140;8.904;2024-03-22T11:39:05;103033.28;;;9.74;100.00
11856;BME280;5987;53.140;8.904;2024-03-22T11:42:09;103025.44;;;9.87;100.00
11856;BME280;5987;53.140;8.904;2024-03-22T11:45:23;103021.94;;;9.82;100.00
11856;BME280;5987;53.140;8.904;2024-03-22T11:48:26;103018.44;;;9.83;100.00
11856;BME280;5987;53.140;8.904;2024-03-22T11:51:28;103020.22;;;9.96;100.00
11856;BME280;5987;53.140;8.904;2024-03-22T11:54:29;103007.97;;;9.93;100.00
11856;BME280;5987;53.140;8.904;2024-03-22T11:57:32;102986.97;;;9.78;100.00
11856;BME280;5987;53.140;8.904;2024-03-22T12:00:33;102990.47;;;9.95;100.00
11856;BME280;5987;53.140;8.904;2024-03-22T12:03:36;102978.22;;;9.77;100.00
11856;BME280;5987;53.140;8.904;2024-03-22T12:06:37;102980.81;;;9.74;100.00
11856;BME280;5987;53.140;8.904;2024-03-22T12:09:43;102983.44;;;9.71;100.00
11856;BME280;5987;53.140;8.904;2024-03-22T12:12:48;102996.56;;;9.71;100.00
11856;BME280;5987;53.140;8.904;2024-03-22T12:15:49;103009.69;;;9.65;100.00
11856;BME280;5987;53.140;8.904;2024-03-22T12:18:51;103022.81;;;9.74;100.00
11856;BME280;5987;53.140;8.904;2024-03-22T12:21:53;103032.44;;;9.72;100.00
11856;BME280;5987;53.140;8.904;2024-03-22T12:24:56;103043.81;;;9.77;100.00
11856;BME280;5987;53.140;8.904;2024-03-22T12:28:00;103044.72;;;10.00;100.00
11856;BME280;5987;53.140;8.904;2024-03-22T12:31:04;103018.47;;;9.98;100.00
11856;BME280;5987;53.140;8.904;2024-03-22T12:34:05;103009.72;;;10.07;100.00
11856;BME280;5987;53.140;8.904;2024-03-22T12:37:09;102993.09;;;9.97;100.00
11856;BME280;5987;53.140;8.904;2024-03-22T12:40:11;102972.13;;;9.99;100.00
11856;BME280;5987;53.140;8.904;2024-03-22T12:43:15;102940.63;;;9.91;100.00
11856;BME280;5987;53.140;8.904;2024-03-22T12:46:18;102920.50;;;9.88;100.00
11856;BME280;5987;53.140;8.904;2024-03-22T12:49:20;102895.13;;;9.86;100.00
11856;BME280;5987;53.140;8.904;2024-03-22T12:52:23;102883.75;;;9.90;100.00
11856;BME280;5987;53.140;8.904;2024-03-22T12:55:24;102863.63;;;9.86;100.00
11856;BME280;5987;53.140;8.904;2024-03-22T12:58:26;102847.06;;;9.79;100.00
11856;BME280;5987;53.140;8.904;2024-03-22T13:01:28;102840.03;;;9.86;100.00
11856;BME280;5987;53.140;8.904;2024-03-22T13:04:30;102837.41;;;9.89;100.00
11856;BME280;5987;53.140;8.904;2024-03-22T13:07:33;102816.41;;;9.92;100.00
11856;BME280;5987;53.140;8.904;2024-03-22T13:10:34;102795.41;;;9.86;100.00
11856;BME280;5987;53.140;8.904;2024-03-22T13:13:37;102786.66;;;9.96;100.00
11856;BME280;5987;53.140;8.904;2024-03-22T13:16:39;102779.66;;;9.96;100.00
11856;BME280;5987;53.140;8.904;2024-03-22T13:19:40;102760.44;;;9.87;100.00
11856;BME280;5987;53.140;8.904;2024-03-22T13:22:43;102754.31;;;9.91;100.00
11856;BME280;5987;53.140;8.904;2024-03-22T13:25:45;102752.56;;;9.90;100.00
11856;BME280;5987;53.140;8.904;2024-03-22T13:28:47;102756.94;;;9.91;100.00
11856;BME280;5987;53.140;8.904;2024-03-22T13:31:49;102754.34;;;9.83;100.00
11856;BME280;5987;53.140;8.904;2024-03-22T13:34:51;102761.34;;;9.81;100.00
11856;BME280;5987;53.140;8.904;2024-03-22T13:37:56;102777.91;;;9.94;100.00
11856;BME280;5987;53.140;8.904;2024-03-22T13:40:59;102784.94;;;9.90;100.00
11856;BME280;5987;53.140;8.904;2024-03-22T13:44:01;102782.31;;;9.86;100.00
11856;BME280;5987;53.140;8.904;2024-03-22T13:47:04;102786.72;;;9.71;100.00
11856;BME280;5987;53.140;8.904;2024-03-22T13:50:07;102805.94;;;9.67;100.00
11856;BME280;5987;53.140;8.904;2024-03-22T13:53:10;102840.06;;;9.76;100.00
11856;BME280;5987;53.140;8.904;2024-03-22T13:56:11;102856.69;;;9.66;100.00
11856;BME280;5987;53.140;8.904;2024-03-22T13:59:14;102886.41;;;9.70;100.00
11856;BME280;5987;53.140;8.904;2024-03-22T14:02:20;102930.09;;;9.82;100.00
11856;BME280;5987;53.140;8.904;2024-03-22T14:05:23;102967.72;;;9.90;100.00
11856;BME280;5987;53.140;8.904;2024-03-22T14:08:25;103003.59;;;10.03;100.00
11856;BME280;5987;53.140;8.904;2024-03-22T14:11:28;103004.47;;;9.88;100.00
11856;BME280;5987;53.140;8.904;2024-03-22T14:14:34;103022.81;;;9.81;100.00
11856;BME280;5987;53.140;8.904;2024-03-22T14:17:36;103035.91;;;9.70;100.00
11856;BME280;5987;53.140;8.904;2024-03-22T14:20:37;103046.41;;;9.68;100.00
11856;BME280;5987;53.140;8.904;2024-03-22T14:23:40;103064.78;;;9.71;100.00
11856;BME280;5987;53.140;8.904;2024-03-22T14:26:41;103098.91;;;9.84;100.00
11856;BME280;5987;53.140;8.904;2024-03-22T14:29:45;103097.09;;;9.64;100.00
11856;BME280;5987;53.140;8.904;2024-03-22T14:32:46;103107.59;;;9.58;100.00
11856;BME280;5987;53.140;8.904;2024-03-22T14:35:48;103132.91;;;9.56;100.00
11856;BME280;5987;53.140;8.904;2024-03-22T14:38:53;103138.94;;;9.38;100.00
11856;BME280;5987;53.140;8.904;2024-03-22T14:41:55;103165.22;;;9.42;100.00
11856;BME280;5987;53.140;8.904;2024-03-22T14:44:57;103183.50;;;9.36;100.00
11856;BME280;5987;53.140;8.904;2024-03-22T14:48:00;103200.16;;;9.40;100.00
11856;BME280;5987;53.140;8.904;2024-03-22T14:51:06;103207.94;;;9.29;100.00
11856;BME280;5987;53.140;8.904;2024-03-22T14:54:10;103222.78;;;9.25;100.00
11856;BME280;5987;53.140;8.904;2024-03-22T14:57:11;103253.31;;;9.22;100.00
11856;BME280;5987;53.140;8.904;2024-03-22T15:00:14;103263.78;;;9.20;100.00
11856;BME280;5987;53.140;8.904;2024-03-22T15:03:16;103283.78;;;9.09;100.00
11856;BME280;5987;53.140;8.904;2024-03-22T15:06:19;103305.59;;;9.03;100.00
11856;BME280;5987;53.140;8.904;2024-03-22T15:09:20;103329.16;;;9.00;100.00
11856;BME280;5987;53.140;8.904;2024-03-22T15:12:23;103340.31;;;8.82;100.00
11856;BME280;5987;53.140;8.904;2024-03-22T15:15:25;103336.59;;;8.65;100.00
11856;BME280;5987;53.140;8.904;2024-03-22T15:18:28;103346.06;;;8.52;100.00
11856;BME280;5987;53.140;8.904;2024-03-22T15:21:29;103343.28;;;8.41;100.00
11856;BME280;5987;53.140;8.904;2024-03-22T15:24:32;103326.53;;;8.28;100.00
11856;BME280;5987;53.140;8.904;2024-03-22T15:27:33;103328.34;;;8.34;100.00
11856;BME280;5987;53.140;8.904;2024-03-22T15:30:36;103321.22;;;8.23;100.00
11856;BME280;5987;53.140;8.904;2024-03-22T15:33:39;103292.44;;;8.22;100.00
11856;BME280;5987;53.140;8.904;2024-03-22T15:36:40;103238.44;;;8.32;100.00
11856;BME280;5987;53.140;8.904;2024-03-22T15:39:43;103182.63;;;8.31;100.00
11856;BME280;5987;53.140;8.904;2024-03-22T15:42:45;103116.16;;;8.17;100.00
11856;BME280;5987;53.140;8.904;2024-03-22T15:45:48;103056.78;;;8.10;100.00
11856;BME280;5987;53.140;8.904;2024-03-22T15:48:49;102993.03;;;8.03;100.00
11856;BME280;5987;53.140;8.904;2024-03-22T15:51:52;102964.25;;;8.03;100.00
11856;BME280;5987;53.140;8.904;2024-03-22T15:54:55;102937.31;;;8.13;100.00
11856;BME280;5987;53.140;8.904;2024-03-22T15:57:56;102913.69;;;8.02;100.00
11856;BME280;5987;53.140;8.904;2024-03-22T16:00:58;102899.66;;;7.94;100.00
11856;BME280;5987;53.140;8.904;2024-03-22T16:04:00;102884.00;;;7.99;100.00
11856;BME280;5987;53.140;8.904;2024-03-22T16:07:02;102870.03;;;7.95;100.00